Terminal Aerodrome Forecast
Issued by NWS Lake Charles, LA

Home | Current Version | Previous Version | Text Only | Print | Product List | Glossary On
Versions: 1 2 3 4 5 6 7 8 9 10 11 12 13 14 15 16 17 18 19
000
FTUS44 KLCH 190520
TAFBPT
TAF
KBPT 190520Z 1906/2006 12014G22KT P6SM -RA SCT050 BKN100
     FM191500 13018G26KT P6SM -SHRA SCT025 BKN035 PROB30 1918/1924
      3SM +SHRA BR BKN025 OVC035=

USA.gov is the U.S. government's official web portal to all federal, state and local government web resources and services.